עמוד ראשי
METAR-TAF:

METAR-TAF

שדות תעופה :

וראקרוס, מקסיקו

קו רוחב: 19-09N, קו אורך: 096-11W, גובה: 32מטר

תצפית מזג אוויר נוכחית

הדו"ח נערך לפני 35דקות, בשעה 04:44 UTC
רוח רגועה
טמפרטורת 29 צלסיוס
לחות 84%
לחץ 1007 hPa
ראות: 8.0קילומטר
שמיים נקיים

METAR: MMVR 260444Z 00000KT 5SM SKC 29/26 A2975 RMK HZY

זמן: 00:19 (05:19 UTC)

תחזית

הדו"ח נערך לפני 11 שעות ו 50דקות, בשעה 17:29 UTC
תחזית בתוקף מ 25 ב 18 UTC עד 26 ב 18 UTC
רוח 10קשר מכיוון דרום-מזרח
ראות: 6.4קילומטר
שמיים נקיים
אובך
מ 26 ב 0300UTC
רוח 10קשר מכיוון מזרח
ראות: 8.0קילומטר
עננים פזורים בגובה 2000רגל
אובך
מ 26 ב 1200UTC
רוח 5קשר מכיוון דרום/דרום-מזרח
ראות: 8.0קילומטר
שמיים נקיים

TAF: MMVR 251729Z 2518/2618 14010KT 4SM HZ SKC TX41/2520Z TN28/2612Z FM260300 10010KT 5SM HZ SCT020 FM261200 16005KT 5SM SKC

תצפיות ותחזיות מזג אוויר לגבי יותר מ- 4,000 שדות תעופה ברחבי העולם. דוחות METAR ו- TAF.

התחנות הזמינות מסומנות בנקודות צהובות ואדומות על גבי המפה.

העבר את העכבר לנקודה הצבעונית על מנת לראות את שם התחנה.

לאחר מכן, לחץ כדי לראות את תוכן ואת תחזיות מזג האוויר.

כדי לשנות את המפה: לחץ על הכפתורים הירוקים עם הפלוס השחור כדי להתקרב; על הכפתור הירוק עם המקף כדי להתרחק; או בחיצים הירוקים למפות סמוכות.


METAR-TAF: